Elkins-Randolph Co-Jennings Randolph Field
KEKN : now visible

Airfield :











YOU CAN JOIN US ON...

 
LOGIN :

Register | Disclaimer

   EN    FR    IT 

 









Legend :    VFR   Marginal VFR   IFR   Intensive IFR   Very Intensive IFR
Visi :
Ceiling :
>= 8 km
>= 3000ft
5 to 8 km
1000 to 3000 ft
1500m to 5 km
500 to 1000 ft
800 to 1500m
200 to 500 ft
< 800m
< 200 ft
Symbols :   Thunderstorms  Fog  Heavy snow  Heavy precipitations  Wind > 20 kt







- Airport Elevation : 1987 ft


KEKN - Elkins-Randolph Co-Jennings Randolph Field

CURRENT METAR :
  • 261551Z AUTO 26021G33KT 7SM -RA SCT026 BKN035 OVC055 14/09 A2950 RMK AO2 PK WND 25033/1546 WSHFT 1534 PRESRR SLP985 P0008 T01440094 TSNO

EXPIRED METARs :
  • 261451Z AUTO 20006KT 10SM -RA SCT043 BKN050 OVC065 17/12 A2944 RMK AO2 RAB36 SLP961 P0000 60002 T01720117 56038 TSNO
  • 261351Z AUTO 15004KT 10SM SCT040 BKN049 BKN060 17/13 A2947 RMK AO2 RAE45 SLP971 P0001 T01670133 TSNO
  • 261251Z AUTO 16005KT 10SM -RA BKN039 BKN065 OVC080 16/13 A2952 RMK AO2 RAB1153 SLP988 P0001 T01560128 TSNO

TAF KEKN
Valid from the 26 at 15:00 until the 27 at 12:00 UTC


261432Z 2615/2712 23013G25KT 4SM SHRA OVC020
TEMPO 2620/2622 2SM -SHRA OVC009
FM262300 29013G25KT 6SM -SHRA OVC015
FM270500 29017G25KT P6SM OVC025
FM270800 28014G22KT P6SM SCT030
KZDC FIR / North America



MET'MAP, your aeronautical weather chart ! - Copyright ORBIFLY December 2007 - Disclaimer

ORBIFLY MET'MAP TEAM :

Programming & Development : Alexandra Zaïnal
Concept & Development : Baudouin d'Aumeries
Co-Development & Prog : Marc-Olivier Méhu
Technical & hardware support : Manuel Goepfert

Contact : metmap@orbifly.com




SOURCES & CREDITS :

   NOAA       Earth
Advisory